createdAt,value
2018-06-09T00:00:40.184Z,36.42
2018-06-09T00:03:10.104Z,35.92
2018-06-09T00:05:39.462Z,39.10
2018-06-09T00:08:08.781Z,34.18
2018-06-09T00:10:38.060Z,34.13
2018-06-09T00:13:07.399Z,36.58
2018-06-09T00:15:36.650Z,35.78
2018-06-09T00:18:05.962Z,37.73
2018-06-09T00:20:35.606Z,33.05
2018-06-09T00:23:05.403Z,36.35
2018-06-09T00:25:34.697Z,40.08
2018-06-09T00:28:04.018Z,43.13
2018-06-09T00:30:33.320Z,37.98
2018-06-09T00:33:03.339Z,36.45
2018-06-09T00:35:32.715Z,38.55
2018-06-09T00:38:02.612Z,37.78
2018-06-09T00:40:31.843Z,39.80
2018-06-09T00:43:01.207Z,40.38
2018-06-09T00:45:30.146Z,35.70
2018-06-09T00:47:59.308Z,37.53
2018-06-09T00:50:28.584Z,38.65
2018-06-09T00:52:57.831Z,45.12
2018-06-09T00:55:27.147Z,38.95
2018-06-09T00:57:56.540Z,38.25
2018-06-09T01:00:25.861Z,43.08
2018-06-09T01:02:55.127Z,40.52
2018-06-09T01:05:24.929Z,38.73
2018-06-09T01:07:54.174Z,41.65
2018-06-09T01:10:23.679Z,39.42
2018-06-09T01:12:52.933Z,37.63
2018-06-09T01:15:22.316Z,39.15
2018-06-09T01:17:52.376Z,33.98
2018-06-09T01:20:21.703Z,35.83
2018-06-09T01:22:50.960Z,41.50
2018-06-09T01:25:20.328Z,33.58
2018-06-09T01:27:49.699Z,34.48
2018-06-09T01:30:18.997Z,37.53
2018-06-09T01:32:48.229Z,39.73
2018-06-09T01:35:17.552Z,35.23
2018-06-09T01:37:46.821Z,37.05
2018-06-09T01:40:16.880Z,36.83
2018-06-09T01:42:46.146Z,43.92
2018-06-09T01:45:15.424Z,39.55
2018-06-09T01:47:45.293Z,34.53
2018-06-09T01:50:14.627Z,35.60
2018-06-09T01:52:43.869Z,34.88
2018-06-09T01:55:13.158Z,32.28
2018-06-09T01:57:42.401Z,35.25
2018-06-09T02:00:11.345Z,33.33
2018-06-09T02:02:40.424Z,34.35
2018-06-09T02:05:10.091Z,34.60
2018-06-09T02:07:39.385Z,32.38
2018-06-09T02:10:08.707Z,33.42
2018-06-09T02:12:38.024Z,34.73
2018-06-09T02:15:07.407Z,33.33
2018-06-09T02:17:37.243Z,30.65
2018-06-09T02:20:06.644Z,29.42
2018-06-09T02:22:35.911Z,25.97
2018-06-09T02:25:05.291Z,31.90
2018-06-09T02:27:34.565Z,24.95
2018-06-09T02:30:03.893Z,30.52
2018-06-09T02:32:33.373Z,26.05
2018-06-09T02:35:02.655Z,30.15
2018-06-09T02:37:31.899Z,23.75
2018-06-09T02:40:01.169Z,26.80
2018-06-09T02:42:30.516Z,30.27
2018-06-09T02:44:59.807Z,26.60
2018-06-09T02:47:29.040Z,23.05
2018-06-09T02:49:58.299Z,28.15
2018-06-09T02:52:27.809Z,25.55
2018-06-09T02:54:57.105Z,26.48
2018-06-09T02:57:26.455Z,27.37
2018-06-09T02:59:55.786Z,24.92
2018-06-09T03:02:25.039Z,26.20
2018-06-09T03:04:54.372Z,24.60
2018-06-09T03:07:23.591Z,23.32
2018-06-09T03:09:52.867Z,23.22
2018-06-09T03:12:22.138Z,24.63
2018-06-09T03:14:51.728Z,22.55
2018-06-09T03:17:21.006Z,22.27
2018-06-09T03:19:50.420Z,23.38
2018-06-09T03:22:19.679Z,23.35
2018-06-09T03:24:48.938Z,22.55
2018-06-09T03:27:18.195Z,20.90
2018-06-09T03:29:47.870Z,20.82
2018-06-09T03:32:17.177Z,21.10
2018-06-09T03:34:46.452Z,21.95
2018-06-09T03:37:16.321Z,20.25
2018-06-09T03:39:45.565Z,19.17
2018-06-09T03:42:15.553Z,19.07
2018-06-09T03:44:45.383Z,18.75
2018-06-09T03:47:14.671Z,16.57
2018-06-09T03:49:43.903Z,17.25
2018-06-09T03:52:13.179Z,15.88
2018-06-09T03:54:42.414Z,18.52
2018-06-09T03:57:11.689Z,19.42
2018-06-09T03:59:41.089Z,17.95
2018-06-09T04:02:10.393Z,17.10
2018-06-09T04:04:40.172Z,16.57
2018-06-09T04:07:09.351Z,17.45
2018-06-09T04:09:38.576Z,18.27
2018-06-09T04:12:07.909Z,18.25
2018-06-09T04:14:37.180Z,16.97
2018-06-09T04:17:06.412Z,18.57
2018-06-09T04:19:35.665Z,17.90
2018-06-09T04:22:04.896Z,18.80
2018-06-09T04:24:34.237Z,16.25
2018-06-09T04:27:03.501Z,17.48
2018-06-09T04:29:34.742Z,17.70
2018-06-09T04:32:04.145Z,17.25
2018-06-09T04:34:33.424Z,15.83
2018-06-09T04:37:02.718Z,18.57
2018-06-09T04:39:31.936Z,16.48
2018-06-09T04:42:01.212Z,17.30
2018-06-09T04:44:30.456Z,17.25
2018-06-09T04:46:59.757Z,15.88
2018-06-09T04:49:29.135Z,16.60
2018-06-09T04:51:58.383Z,16.75
2018-06-09T04:54:27.666Z,18.55
2018-06-09T04:56:56.980Z,17.05
2018-06-09T04:59:26.364Z,15.45
2018-06-09T05:01:55.595Z,15.58
2018-06-09T05:04:24.843Z,15.55
2018-06-09T05:06:54.163Z,17.00
2018-06-09T05:09:23.789Z,18.00
2018-06-09T05:11:53.139Z,16.23
2018-06-09T05:14:22.364Z,15.05
2018-06-09T05:16:51.632Z,16.32
2018-06-09T05:19:20.872Z,15.05
2018-06-09T05:21:50.116Z,15.38
2018-06-09T05:24:19.413Z,17.05
2018-06-09T05:26:48.968Z,13.53
2018-06-09T05:29:18.281Z,15.63
2018-06-09T05:31:47.511Z,16.62
2018-06-09T05:34:16.840Z,17.17
2018-06-09T05:36:46.507Z,15.35
2018-06-09T05:39:15.764Z,16.15
2018-06-09T05:41:45.129Z,15.98
2018-06-09T05:44:14.515Z,18.77
2018-06-09T05:46:44.463Z,16.97
2018-06-09T05:49:13.717Z,14.78
2018-06-09T05:51:42.975Z,17.02
2018-06-09T05:54:12.240Z,16.48
2018-06-09T05:56:41.533Z,18.07
2018-06-09T05:59:10.881Z,16.07
2018-06-09T06:01:40.205Z,13.95
2018-06-09T06:04:09.547Z,16.12
2018-06-09T06:06:38.791Z,14.70
2018-06-09T06:09:08.509Z,17.45
2018-06-09T06:11:37.891Z,16.12
2018-06-09T06:14:07.152Z,16.17
2018-06-09T06:16:36.101Z,14.68
2018-06-09T06:19:05.316Z,15.08
2018-06-09T06:21:34.584Z,16.55
2018-06-09T06:24:03.874Z,15.83
2018-06-09T06:26:33.166Z,14.83
2018-06-09T06:29:02.452Z,16.17
2018-06-09T06:31:31.737Z,15.88
2018-06-09T06:34:01.044Z,14.63
2018-06-09T06:36:30.344Z,12.18
2018-06-09T06:38:59.612Z,21.52
2018-06-09T06:41:29.477Z,14.60
2018-06-09T06:43:58.724Z,14.15
2018-06-09T06:46:27.984Z,17.95
2018-06-09T06:48:57.486Z,17.27
2018-06-09T06:51:26.756Z,14.20
2018-06-09T06:53:56.401Z,15.95
2018-06-09T06:56:25.734Z,14.90
2018-06-09T06:58:55.125Z,15.90
2018-06-09T07:01:24.583Z,15.38
2018-06-09T07:03:53.915Z,14.40
2018-06-09T07:06:23.364Z,14.87
2018-06-09T07:08:52.684Z,15.68
2018-06-09T07:11:22.453Z,15.58
2018-06-09T07:13:51.787Z,14.63
2018-06-09T07:16:21.144Z,16.00
2018-06-09T07:18:50.415Z,15.38
2018-06-09T07:21:19.709Z,15.75
2018-06-09T07:23:49.285Z,15.45
2018-06-09T07:26:18.504Z,17.32
2018-06-09T07:28:47.812Z,13.72
2018-06-09T07:31:17.327Z,14.83
2018-06-09T07:33:46.728Z,14.18
2018-06-09T07:36:16.034Z,13.40
2018-06-09T07:38:45.451Z,15.58
2018-06-09T07:41:14.738Z,17.57
2018-06-09T07:43:44.060Z,16.02
2018-06-09T07:46:13.402Z,14.83
2018-06-09T07:48:42.648Z,14.47
2018-06-09T07:51:12.002Z,13.88
2018-06-09T07:53:42.099Z,14.28
2018-06-09T07:56:15.528Z,14.55
2018-06-09T07:58:44.782Z,14.85
2018-06-09T08:01:14.251Z,14.15
2018-06-09T08:03:43.531Z,16.73
2018-06-09T08:06:12.804Z,16.73
2018-06-09T08:08:42.143Z,17.95
2018-06-09T08:11:12.772Z,16.52
2018-06-09T08:13:42.357Z,13.75
2018-06-09T08:16:11.994Z,14.83
2018-06-09T08:18:41.248Z,14.03
2018-06-09T08:21:10.713Z,17.40
2018-06-09T08:23:39.990Z,14.23
2018-06-09T08:26:09.332Z,14.23
2018-06-09T08:28:39.501Z,14.83
2018-06-09T08:31:08.880Z,16.57
2018-06-09T08:33:38.170Z,15.08
2018-06-09T08:36:07.920Z,16.97
2018-06-09T08:38:37.027Z,17.17
2018-06-09T08:41:07.083Z,12.30
2018-06-09T08:43:36.359Z,14.50
2018-06-09T08:46:05.815Z,15.58
2018-06-09T08:48:35.122Z,15.43
2018-06-09T08:51:04.429Z,14.68
2018-06-09T08:53:33.858Z,13.05
2018-06-09T08:56:03.267Z,16.70
2018-06-09T08:58:32.600Z,17.15
2018-06-09T09:01:01.916Z,13.90
2018-06-09T09:03:31.742Z,14.07
2018-06-09T09:06:01.740Z,13.48
2018-06-09T09:08:31.042Z,12.82
2018-06-09T09:11:00.381Z,12.70
2018-06-09T09:13:29.628Z,12.63
2018-06-09T09:15:58.954Z,14.00
2018-06-09T09:18:28.288Z,13.80
2018-06-09T09:20:57.547Z,13.65
2018-06-09T09:23:26.851Z,14.60
2018-06-09T09:25:56.305Z,14.55
2018-06-09T09:28:25.571Z,13.00
2018-06-09T09:30:54.838Z,14.07
2018-06-09T09:33:24.531Z,12.80
2018-06-09T09:35:53.815Z,13.30
2018-06-09T09:38:23.177Z,16.00
2018-06-09T09:40:52.599Z,13.90
2018-06-09T09:43:21.894Z,13.58
2018-06-09T09:45:51.848Z,14.53
2018-06-09T09:48:21.305Z,13.05
2018-06-09T09:50:50.743Z,14.75
2018-06-09T09:53:20.335Z,16.48
2018-06-09T09:55:49.712Z,14.07
2018-06-09T09:58:19.051Z,13.53
2018-06-09T10:00:48.368Z,14.70
2018-06-09T10:03:17.736Z,14.85
2018-06-09T10:05:47.047Z,12.82
2018-06-09T10:08:17.345Z,14.68
2018-06-09T10:10:46.629Z,16.75
2018-06-09T10:13:16.069Z,14.85
2018-06-09T10:15:46.276Z,14.53
2018-06-09T10:18:16.555Z,14.85
2018-06-09T10:20:46.531Z,13.70
2018-06-09T10:23:15.810Z,12.45
2018-06-09T10:25:45.748Z,15.95
2018-06-09T10:28:15.768Z,15.10
2018-06-09T10:30:45.334Z,13.98
2018-06-09T10:33:14.591Z,13.22
2018-06-09T10:35:43.875Z,16.10
2018-06-09T10:38:13.162Z,16.30
2018-06-09T10:40:43.036Z,12.82
2018-06-09T10:43:12.319Z,16.10
2018-06-09T10:45:42.797Z,13.48
2018-06-09T10:48:12.493Z,14.18
2018-06-09T10:50:41.727Z,13.88
2018-06-09T10:53:11.396Z,14.50
2018-06-09T10:55:40.714Z,13.60
2018-06-09T10:58:09.984Z,14.20
2018-06-09T11:00:39.312Z,12.82
2018-06-09T11:03:09.355Z,11.60
2018-06-09T11:05:38.750Z,12.58
2018-06-09T11:08:08.432Z,13.10
2018-06-09T11:10:37.749Z,12.43
2018-06-09T11:13:07.397Z,12.28
2018-06-09T11:15:36.681Z,11.55
2018-06-09T11:18:06.577Z,15.35
2018-06-09T11:20:35.841Z,13.28
2018-06-09T11:23:05.302Z,12.13
2018-06-09T11:25:34.716Z,13.48
2018-06-09T11:28:04.019Z,12.75
2018-06-09T11:30:33.338Z,11.70
2018-06-09T11:33:02.711Z,13.13
2018-06-09T11:35:32.047Z,14.35
2018-06-09T11:38:01.340Z,13.78
2018-06-09T11:40:31.108Z,14.68
2018-06-09T11:43:00.900Z,12.98
2018-06-09T11:45:30.136Z,15.38
2018-06-09T11:47:59.427Z,14.30
2018-06-09T11:50:28.661Z,13.58
2018-06-09T11:52:57.983Z,13.30
2018-06-09T11:55:27.246Z,11.53
2018-06-09T11:57:56.526Z,18.10
2018-06-09T12:00:25.801Z,13.15
2018-06-09T12:02:55.060Z,15.53
2018-06-09T12:05:24.297Z,14.05
2018-06-09T12:07:53.572Z,14.80
2018-06-09T12:10:22.844Z,15.60
2018-06-09T12:12:53.023Z,14.85
2018-06-09T12:15:22.453Z,13.95
2018-06-09T12:17:51.738Z,17.15
2018-06-09T12:20:21.050Z,18.23
2018-06-09T12:22:50.462Z,13.85
2018-06-09T12:25:19.693Z,16.82
2018-06-09T12:27:49.371Z,15.13
2018-06-09T12:30:18.704Z,15.00
2018-06-09T12:32:48.007Z,13.80
2018-06-09T12:35:17.364Z,16.70
2018-06-09T12:37:46.683Z,18.32
2018-06-09T12:40:16.048Z,14.58
2018-06-09T12:42:45.611Z,16.37
2018-06-09T12:45:14.931Z,17.73
2018-06-09T12:47:44.292Z,13.98
2018-06-09T12:50:13.648Z,20.23
2018-06-09T12:52:43.316Z,17.48
2018-06-09T12:55:12.768Z,18.62
2018-06-09T12:57:42.455Z,21.33
2018-06-09T13:00:11.771Z,20.57
2018-06-09T13:02:41.688Z,18.02
2018-06-09T13:05:11.049Z,15.32
2018-06-09T13:07:41.082Z,22.52
2018-06-09T13:10:10.945Z,20.72
2018-06-09T13:12:40.424Z,17.23
2018-06-09T13:15:10.274Z,19.42
2018-06-09T13:17:39.559Z,13.00
2018-06-09T13:20:09.555Z,15.80
2018-06-09T13:22:38.809Z,16.25
2018-06-09T13:25:08.120Z,16.95
2018-06-09T13:27:37.992Z,18.55
2018-06-09T13:30:07.639Z,16.57
2018-06-09T13:32:36.882Z,19.15
2018-06-09T13:35:06.431Z,16.80
2018-06-09T13:37:36.040Z,17.12
2018-06-09T13:40:05.620Z,13.50
2018-06-09T13:42:35.217Z,14.50
2018-06-09T13:45:04.666Z,14.50
2018-06-09T13:47:33.933Z,15.60
2018-06-09T13:50:03.228Z,16.12
2018-06-09T13:52:32.509Z,14.10
2018-06-09T13:55:01.947Z,14.85
2018-06-09T13:57:31.297Z,16.02
2018-06-09T14:00:01.440Z,12.45
2018-06-09T14:02:30.755Z,15.60
2018-06-09T14:05:00.110Z,18.17
2018-06-09T14:07:29.356Z,18.77
2018-06-09T14:09:59.107Z,19.07
2018-06-09T14:12:28.711Z,18.40
2018-06-09T14:14:58.061Z,18.62
2018-06-09T14:17:27.940Z,16.15
2018-06-09T14:19:57.412Z,15.23
2018-06-09T14:22:27.631Z,13.88
2018-06-09T14:24:56.956Z,12.03
2018-06-09T14:27:26.193Z,12.28
2018-06-09T14:29:55.554Z,14.70
2018-06-09T14:32:24.911Z,17.32
2018-06-09T14:34:54.237Z,14.28
2018-06-09T14:37:23.632Z,17.65
2018-06-09T14:39:52.978Z,14.07
2018-06-09T14:42:22.206Z,11.55
2018-06-09T14:44:51.545Z,11.90
2018-06-09T14:47:20.829Z,11.97
2018-06-09T14:49:50.140Z,15.18
2018-06-09T14:52:19.503Z,13.60
2018-06-09T14:54:48.816Z,13.75
2018-06-09T14:57:18.224Z,11.25
2018-06-09T14:59:47.949Z,12.23
2018-06-09T15:02:17.229Z,12.60
2018-06-09T15:04:46.550Z,11.75
2018-06-09T15:07:15.784Z,14.70
2018-06-09T15:09:45.046Z,14.98
2018-06-09T15:12:14.635Z,16.02
2018-06-09T15:14:43.892Z,14.93
2018-06-09T15:17:13.195Z,11.55
2018-06-09T15:19:42.509Z,11.63
2018-06-09T15:22:11.796Z,15.25
2018-06-09T15:24:41.103Z,12.80
2018-06-09T15:27:10.467Z,14.95
2018-06-09T15:29:39.851Z,15.75
2018-06-09T15:32:09.345Z,12.80
2018-06-09T15:34:38.604Z,13.68
2018-06-09T15:37:08.734Z,13.98
2018-06-09T15:39:37.968Z,15.50
2018-06-09T15:42:07.301Z,11.83
2018-06-09T15:44:36.703Z,18.52
2018-06-09T15:47:05.976Z,13.75
2018-06-09T15:49:35.236Z,12.80
2018-06-09T15:52:04.556Z,13.15
2018-06-09T15:54:33.878Z,11.18
2018-06-09T15:57:03.162Z,13.03
2018-06-09T15:59:32.504Z,12.47
2018-06-09T16:02:01.820Z,10.68
2018-06-09T16:04:31.215Z,14.35
2018-06-09T16:07:01.229Z,13.10
2018-06-09T16:09:30.904Z,12.10
2018-06-09T16:12:00.248Z,14.53
2018-06-09T16:14:29.562Z,14.58
2018-06-09T16:16:58.788Z,13.68
2018-06-09T16:19:28.092Z,16.35
2018-06-09T16:21:57.407Z,14.78
2018-06-09T16:24:26.893Z,12.85
2018-06-09T16:26:56.421Z,13.25
2018-06-09T16:29:25.786Z,14.35
2018-06-09T16:31:55.115Z,13.00
2018-06-09T16:34:24.727Z,12.10
2018-06-09T16:36:53.719Z,13.40
2018-06-09T16:39:22.837Z,12.13
2018-06-09T16:41:53.038Z,12.53
2018-06-09T16:44:22.693Z,12.80
2018-06-09T16:46:52.196Z,12.88
2018-06-09T16:49:21.559Z,15.08
2018-06-09T16:51:51.706Z,13.58
2018-06-09T16:54:21.703Z,16.50
2018-06-09T16:56:51.071Z,14.20
2018-06-09T16:59:21.350Z,14.28
2018-06-09T17:01:50.724Z,14.13
2018-06-09T17:04:20.251Z,12.20
2018-06-09T17:06:49.552Z,17.27
2018-06-09T17:09:19.805Z,14.33
2018-06-09T17:11:49.138Z,16.30
2018-06-09T17:14:18.461Z,14.80
2018-06-09T17:16:48.432Z,13.15
2018-06-09T17:19:17.760Z,12.20
2018-06-09T17:21:47.166Z,11.63
2018-06-09T17:24:16.420Z,12.10
2018-06-09T17:26:45.751Z,12.00
2018-06-09T17:29:15.340Z,13.28
2018-06-09T17:31:44.788Z,13.10
2018-06-09T17:34:14.362Z,11.08
2018-06-09T17:36:43.624Z,12.13
2018-06-09T17:39:13.034Z,15.15
2018-06-09T17:41:42.368Z,13.85
2018-06-09T17:44:11.825Z,12.28
2018-06-09T17:46:41.164Z,11.35
2018-06-09T17:49:10.458Z,13.43
2018-06-09T17:51:39.795Z,12.73
2018-06-09T17:54:09.135Z,12.75
2018-06-09T17:56:39.136Z,12.43
2018-06-09T17:59:08.209Z,15.70
2018-06-09T18:01:37.692Z,12.37
2018-06-09T18:04:07.049Z,14.05
2018-06-09T18:06:37.124Z,12.47
2018-06-09T18:09:08.013Z,13.72
2018-06-09T18:11:37.254Z,14.53
2018-06-09T18:14:06.648Z,16.55
2018-06-09T18:16:35.915Z,14.25
2018-06-09T18:19:05.833Z,13.60
2018-06-09T18:21:35.246Z,15.43
2018-06-09T18:24:04.829Z,17.00
2018-06-09T18:26:34.127Z,13.45
2018-06-09T18:29:03.840Z,14.35
2018-06-09T18:31:33.160Z,16.97
2018-06-09T18:34:02.484Z,15.58
2018-06-09T18:36:31.795Z,18.02
2018-06-09T18:39:01.080Z,19.42
2018-06-09T18:41:30.403Z,14.87
2018-06-09T18:44:00.336Z,16.12
2018-06-09T18:46:29.652Z,14.30
2018-06-09T18:48:58.931Z,15.72
2018-06-09T18:51:28.195Z,14.40
2018-06-09T18:53:57.524Z,12.55
2018-06-09T18:56:27.201Z,15.32
2018-06-09T18:58:56.845Z,15.32
2018-06-09T19:01:26.212Z,14.78
2018-06-09T19:03:55.641Z,14.43
2018-06-09T19:06:24.908Z,14.65
2018-06-09T19:08:54.195Z,21.50
2018-06-09T19:11:23.142Z,16.87
2018-06-09T19:13:52.337Z,15.72
2018-06-09T19:16:21.725Z,16.40
2018-06-09T19:18:51.031Z,18.42
2018-06-09T19:21:20.353Z,14.75
2018-06-09T19:23:49.828Z,16.05
2018-06-09T19:26:19.143Z,15.95
2018-06-09T19:28:48.506Z,15.25
2018-06-09T19:31:17.983Z,18.30
2018-06-09T19:33:47.321Z,23.30
2018-06-09T19:36:16.640Z,16.57
2018-06-09T19:38:46.116Z,15.25
2018-06-09T19:41:15.453Z,16.15
2018-06-09T19:43:44.710Z,15.20
2018-06-09T19:46:14.031Z,20.25
2018-06-09T19:48:43.348Z,17.57
2018-06-09T19:51:12.712Z,17.98
2018-06-09T19:53:42.474Z,17.30
2018-06-09T19:56:11.734Z,19.60
2018-06-09T19:58:41.039Z,16.82
2018-06-09T20:01:10.351Z,17.10
2018-06-09T20:03:39.627Z,16.50
2018-06-09T20:06:08.989Z,17.45
2018-06-09T20:08:38.274Z,17.05
2018-06-09T20:11:07.544Z,17.05
2018-06-09T20:13:36.940Z,18.30
2018-06-09T20:16:06.343Z,18.70
2018-06-09T20:18:35.591Z,16.48
2018-06-09T20:21:04.925Z,18.27
2018-06-09T20:23:34.277Z,18.20
2018-06-09T20:26:05.299Z,17.55
2018-06-09T20:28:34.673Z,17.05
2018-06-09T20:31:03.982Z,14.93
2018-06-09T20:33:33.523Z,15.50
2018-06-09T20:36:02.776Z,16.40
2018-06-09T20:38:32.077Z,17.05
2018-06-09T20:41:01.420Z,17.42
2018-06-09T20:43:31.533Z,17.07
2018-06-09T20:46:00.870Z,18.45
2018-06-09T20:48:30.301Z,19.02
2018-06-09T20:50:59.629Z,19.17
2018-06-09T20:53:29.180Z,20.12
2018-06-09T20:55:58.583Z,20.35
2018-06-09T20:58:32.123Z,18.30
2018-06-09T21:01:01.362Z,19.00
2018-06-09T21:03:30.685Z,18.60
2018-06-09T21:05:59.995Z,17.87
2018-06-09T21:08:29.423Z,19.23
2018-06-09T21:10:58.949Z,19.60
2018-06-09T21:13:28.744Z,18.57
2018-06-09T21:15:58.361Z,17.75
2018-06-09T21:18:27.776Z,18.32
2018-06-09T21:20:57.674Z,18.27
2018-06-09T21:23:26.955Z,18.87
2018-06-09T21:25:56.302Z,16.75
2018-06-09T21:28:27.771Z,15.40
2018-06-09T21:31:01.243Z,19.55
2018-06-09T21:33:47.092Z,17.25
2018-06-09T21:36:21.142Z,19.77
2018-06-09T21:38:55.860Z,17.95
2018-06-09T21:41:29.365Z,17.20
2018-06-09T21:45:02.996Z,16.62
2018-06-09T21:47:32.571Z,18.92
2018-06-09T21:50:01.841Z,21.23
2018-06-09T21:52:31.115Z,18.52
2018-06-09T21:55:00.411Z,19.00
2018-06-09T21:57:29.678Z,16.73
2018-06-09T21:59:59.038Z,15.05
2018-06-09T22:02:28.320Z,14.55
2018-06-09T22:04:57.614Z,16.37
2018-06-09T22:07:26.983Z,15.18
2018-06-09T22:09:56.404Z,15.55
2018-06-09T22:12:25.811Z,14.68
2018-06-09T22:14:55.015Z,19.65
2018-06-09T22:17:24.291Z,15.32
2018-06-09T22:19:53.534Z,14.78
2018-06-09T22:22:22.823Z,14.33
2018-06-09T22:24:52.062Z,15.50
2018-06-09T22:27:21.405Z,13.58
2018-06-09T22:29:50.701Z,13.13
2018-06-09T22:32:20.079Z,13.78
2018-06-09T22:34:49.332Z,17.37
2018-06-09T22:37:18.691Z,13.62
2018-06-09T22:39:48.004Z,12.85
2018-06-09T22:42:17.323Z,12.82
2018-06-09T22:44:46.678Z,13.62
2018-06-09T22:47:17.719Z,11.97
2018-06-09T22:49:46.925Z,12.00
2018-06-09T22:52:16.208Z,11.65
2018-06-09T22:54:45.510Z,11.28
2018-06-09T22:57:14.876Z,10.75
2018-06-09T22:59:44.867Z,12.50
2018-06-09T23:02:14.162Z,10.23
2018-06-09T23:04:43.852Z,10.10
2018-06-09T23:07:13.075Z,10.82
2018-06-09T23:09:42.393Z,10.35
2018-06-09T23:12:11.647Z,11.20
2018-06-09T23:14:40.958Z,13.75
2018-06-09T23:17:10.485Z,12.25
2018-06-09T23:19:39.761Z,11.10
2018-06-09T23:22:09.052Z,12.00
2018-06-09T23:24:38.652Z,11.53
2018-06-09T23:27:08.258Z,11.30
2018-06-09T23:29:37.307Z,13.13
2018-06-09T23:32:06.484Z,12.37
2018-06-09T23:34:36.448Z,12.78
2018-06-09T23:37:05.821Z,13.18
2018-06-09T23:39:35.057Z,12.68
2018-06-09T23:42:05.076Z,11.60
2018-06-09T23:44:34.352Z,13.62
2018-06-09T23:47:03.892Z,13.00
2018-06-09T23:49:33.149Z,12.20
2018-06-09T23:52:02.418Z,11.63
2018-06-09T23:54:31.655Z,10.93
2018-06-09T23:57:00.992Z,12.28
2018-06-09T23:59:30.976Z,10.82
